sensor_id;sensor_type;location;lat;lon;timestamp;pressure;altitude;pressure_sealevel;temperature;humidity
51043;BME280;37078;45.806;9.084;2022-10-16T00:01:37;99559.00;;;21.78;63.41
51043;BME280;37078;45.806;9.084;2022-10-16T00:04:03;99560.63;;;21.79;63.55
51043;BME280;37078;45.806;9.084;2022-10-16T00:06:29;99549.84;;;21.74;63.28
51043;BME280;37078;45.806;9.084;2022-10-16T00:08:55;99555.50;;;21.78;63.61
51043;BME280;37078;45.806;9.084;2022-10-16T00:11:26;99552.03;;;21.72;63.64
51043;BME280;37078;45.806;9.084;2022-10-16T00:13:55;99563.63;;;21.78;63.62
51043;BME280;37078;45.806;9.084;2022-10-16T00:16:21;99555.50;;;21.78;63.69
51043;BME280;37078;45.806;9.084;2022-10-16T00:18:47;99567.16;;;21.78;63.62
51043;BME280;37078;45.806;9.084;2022-10-16T00:21:16;99560.91;;;21.78;63.46
51043;BME280;37078;45.806;9.084;2022-10-16T00:23:42;99564.44;;;21.78;63.72
51043;BME280;37078;45.806;9.084;2022-10-16T00:26:10;99562.81;;;21.77;63.73
51043;BME280;37078;45.806;9.084;2022-10-16T00:28:36;99560.91;;;21.78;63.90
51043;BME280;37078;45.806;9.084;2022-10-16T00:31:05;99559.31;;;21.77;63.72
51043;BME280;37078;45.806;9.084;2022-10-16T00:33:30;99563.94;;;21.76;63.80
51043;BME280;37078;45.806;9.084;2022-10-16T00:35:58;99573.97;;;21.75;63.89
51043;BME280;37078;45.806;9.084;2022-10-16T00:38:24;99577.50;;;21.76;63.70
51043;BME280;37078;45.806;9.084;2022-10-16T00:40:49;99572.06;;;21.76;63.80
51043;BME280;37078;45.806;9.084;2022-10-16T00:43:38;99569.06;;;21.78;64.02
51043;BME280;37078;45.806;9.084;2022-10-16T00:48:40;99576.41;;;21.77;64.12
51043;BME280;37078;45.806;9.084;2022-10-16T00:51:07;99575.53;;;21.82;63.96
51043;BME280;37078;45.806;9.084;2022-10-16T00:53:33;99582.56;;;21.83;64.06
51043;BME280;37078;45.806;9.084;2022-10-16T00:55:59;99577.16;;;21.83;64.07
51043;BME280;37078;45.806;9.084;2022-10-16T00:58:24;99570.63;;;21.84;64.15
51043;BME280;37078;45.806;9.084;2022-10-16T01:00:50;99573.06;;;21.85;63.98
51043;BME280;37078;45.806;9.084;2022-10-16T01:03:26;99570.63;;;21.84;63.99
51043;BME280;37078;45.806;9.084;2022-10-16T01:06:19;99578.50;;;21.85;63.96
51043;BME280;37078;45.806;9.084;2022-10-16T01:11:41;99575.78;;;21.85;63.92
51043;BME280;37078;45.806;9.084;2022-10-16T01:14:22;99564.16;;;21.80;64.01
51043;BME280;37078;45.806;9.084;2022-10-16T01:17:02;99571.41;;;21.84;63.80
51043;BME280;37078;45.806;9.084;2022-10-16T01:22:22;99563.06;;;21.81;63.89
51043;BME280;37078;45.806;9.084;2022-10-16T01:24:53;99570.63;;;21.84;63.71
51043;BME280;37078;45.806;9.084;2022-10-16T01:30:09;99562.25;;;21.80;63.70
51043;BME280;37078;45.806;9.084;2022-10-16T01:35:25;99569.81;;;21.83;63.75
51043;BME280;37078;45.806;9.084;2022-10-16T01:38:03;99570.91;;;21.82;63.92
51043;BME280;37078;45.806;9.084;2022-10-16T01:40:32;99563.06;;;21.81;63.51
51043;BME280;37078;45.806;9.084;2022-10-16T01:43:03;99562.78;;;21.82;63.86
51043;BME280;37078;45.806;9.084;2022-10-16T01:45:31;99566.59;;;21.81;63.69
51043;BME280;37078;45.806;9.084;2022-10-16T01:48:00;99565.47;;;21.82;63.50
51043;BME280;37078;45.806;9.084;2022-10-16T01:50:29;99569.00;;;21.83;63.75
51043;BME280;37078;45.806;9.084;2022-10-16T01:52:56;99562.78;;;21.82;63.68
51043;BME280;37078;45.806;9.084;2022-10-16T01:55:27;99566.28;;;21.83;63.53
51043;BME280;37078;45.806;9.084;2022-10-16T01:57:54;99558.19;;;21.78;63.58
51043;BME280;37078;45.806;9.084;2022-10-16T02:00:22;99566.88;;;21.80;63.60
51043;BME280;37078;45.806;9.084;2022-10-16T02:02:51;99571.22;;;21.81;63.74
51043;BME280;37078;45.806;9.084;2022-10-16T02:05:34;99570.66;;;21.79;63.58
51043;BME280;37078;45.806;9.084;2022-10-16T02:08:02;99565.53;;;21.77;63.64
51043;BME280;37078;45.806;9.084;2022-10-16T02:10:28;99564.72;;;21.77;63.70
51043;BME280;37078;45.806;9.084;2022-10-16T02:15:33;99562.88;;;21.72;63.42
51043;BME280;37078;45.806;9.084;2022-10-16T02:17:58;99566.94;;;21.74;63.81
51043;BME280;37078;45.806;9.084;2022-10-16T02:20:27;99569.66;;;21.74;63.71
51043;BME280;37078;45.806;9.084;2022-10-16T02:22:53;99563.69;;;21.72;63.85
51043;BME280;37078;45.806;9.084;2022-10-16T02:25:31;99560.72;;;21.74;63.73
51043;BME280;37078;45.806;9.084;2022-10-16T02:28:19;99568.84;;;21.74;63.83
51043;BME280;37078;45.806;9.084;2022-10-16T02:30:56;99566.69;;;21.71;63.83
51043;BME280;37078;45.806;9.084;2022-10-16T02:33:24;99572.63;;;21.73;63.71
51043;BME280;37078;45.806;9.084;2022-10-16T02:35:51;99575.34;;;21.73;63.74
51043;BME280;37078;45.806;9.084;2022-10-16T02:38:18;99577.25;;;21.72;63.75
51043;BME280;37078;45.806;9.084;2022-10-16T02:40:45;99574.84;;;21.71;63.78
51043;BME280;37078;45.806;9.084;2022-10-16T02:43:11;99567.00;;;21.69;63.63
51043;BME280;37078;45.806;9.084;2022-10-16T02:45:37;99579.97;;;21.72;63.76
51043;BME280;37078;45.806;9.084;2022-10-16T02:48:02;99575.63;;;21.71;63.67
51043;BME280;37078;45.806;9.084;2022-10-16T02:50:28;99580.25;;;21.71;63.86
51043;BME280;37078;45.806;9.084;2022-10-16T02:52:53;99572.41;;;21.69;63.79
51043;BME280;37078;45.806;9.084;2022-10-16T02:55:18;99574.84;;;21.71;63.76
51043;BME280;37078;45.806;9.084;2022-10-16T02:57:44;99576.44;;;21.72;63.71
51043;BME280;37078;45.806;9.084;2022-10-16T03:00:12;99585.69;;;21.71;63.86
51043;BME280;37078;45.806;9.084;2022-10-16T03:02:38;99587.31;;;21.72;63.97
51043;BME280;37078;45.806;9.084;2022-10-16T03:05:04;99582.97;;;21.71;63.86
51043;BME280;37078;45.806;9.084;2022-10-16T03:07:29;99585.69;;;21.71;64.04
51043;BME280;37078;45.806;9.084;2022-10-16T03:09:54;99589.22;;;21.71;64.01
51043;BME280;37078;45.806;9.084;2022-10-16T03:12:21;99586.78;;;21.70;64.10
51043;BME280;37078;45.806;9.084;2022-10-16T03:14:47;99586.78;;;21.70;63.88
51043;BME280;37078;45.806;9.084;2022-10-16T03:17:12;99589.50;;;21.70;63.94
51043;BME280;37078;45.806;9.084;2022-10-16T03:19:38;99588.69;;;21.69;63.94
51043;BME280;37078;45.806;9.084;2022-10-16T03:22:03;99584.06;;;21.70;63.89
51043;BME280;37078;45.806;9.084;2022-10-16T03:24:29;99584.94;;;21.65;63.94
51043;BME280;37078;45.806;9.084;2022-10-16T03:26:54;99595.19;;;21.68;63.98
51043;BME280;37078;45.806;9.084;2022-10-16T03:29:19;99600.34;;;21.70;64.07
51043;BME280;37078;45.806;9.084;2022-10-16T03:31:45;99594.38;;;21.68;63.93
51043;BME280;37078;45.806;9.084;2022-10-16T03:34:10;99589.78;;;21.68;63.93
51043;BME280;37078;45.806;9.084;2022-10-16T03:36:35;99594.13;;;21.69;63.88
51043;BME280;37078;45.806;9.084;2022-10-16T03:39:01;99595.19;;;21.68;63.86
51043;BME280;37078;45.806;9.084;2022-10-16T03:41:27;99592.47;;;21.68;63.98
51043;BME280;37078;45.806;9.084;2022-10-16T03:43:52;99592.47;;;21.68;63.98
51043;BME280;37078;45.806;9.084;2022-10-16T03:46:17;99594.38;;;21.68;64.06
51043;BME280;37078;45.806;9.084;2022-10-16T03:48:43;99603.34;;;21.68;63.98
51043;BME280;37078;45.806;9.084;2022-10-16T03:51:08;99594.38;;;21.68;63.96
51043;BME280;37078;45.806;9.084;2022-10-16T03:53:34;99605.25;;;21.68;63.76
51043;BME280;37078;45.806;9.084;2022-10-16T03:55:59;99598.22;;;21.67;63.91
51043;BME280;37078;45.806;9.084;2022-10-16T03:58:25;99592.78;;;21.67;63.87
51043;BME280;37078;45.806;9.084;2022-10-16T04:00:50;99598.22;;;21.67;63.85
51043;BME280;37078;45.806;9.084;2022-10-16T04:03:16;99604.44;;;21.67;63.91
51043;BME280;37078;45.806;9.084;2022-10-16T04:05:42;99588.75;;;21.64;64.02
51043;BME280;37078;45.806;9.084;2022-10-16T04:08:08;99605.53;;;21.66;64.00
51043;BME280;37078;45.806;9.084;2022-10-16T04:10:33;99600.13;;;21.66;64.16
51043;BME280;37078;45.806;9.084;2022-10-16T04:12:58;99606.34;;;21.67;64.15
51043;BME280;37078;45.806;9.084;2022-10-16T04:15:24;99613.97;;;21.65;64.06
51043;BME280;37078;45.806;9.084;2022-10-16T04:17:50;99613.69;;;21.66;63.88
51043;BME280;37078;45.806;9.084;2022-10-16T04:20:16;99612.06;;;21.65;64.20
51043;BME280;37078;45.806;9.084;2022-10-16T04:22:42;99622.63;;;21.67;64.19
51043;BME280;37078;45.806;9.084;2022-10-16T04:25:07;99622.13;;;21.65;64.13
51043;BME280;37078;45.806;9.084;2022-10-16T04:27:33;99627.25;;;21.66;64.05
51043;BME280;37078;45.806;9.084;2022-10-16T04:29:59;99618.63;;;21.59;63.89
51043;BME280;37078;45.806;9.084;2022-10-16T04:32:25;99637.28;;;21.66;64.05
51043;BME280;37078;45.806;9.084;2022-10-16T04:34:51;99629.16;;;21.66;64.01
51043;BME280;37078;45.806;9.084;2022-10-16T04:37:17;99627.84;;;21.63;64.19
51043;BME280;37078;45.806;9.084;2022-10-16T04:39:42;99628.06;;;21.67;64.15
51043;BME280;37078;45.806;9.084;2022-10-16T04:42:07;99623.22;;;21.64;64.45
51043;BME280;37078;45.806;9.084;2022-10-16T04:44:33;99626.72;;;21.64;64.20
51043;BME280;37078;45.806;9.084;2022-10-16T04:46:58;99622.91;;;21.65;64.27
51043;BME280;37078;45.806;9.084;2022-10-16T04:49:24;99629.16;;;21.66;64.13
51043;BME280;37078;45.806;9.084;2022-10-16T04:51:49;99631.06;;;21.65;64.23
51043;BME280;37078;45.806;9.084;2022-10-16T04:54:14;99629.16;;;21.66;64.34
51043;BME280;37078;45.806;9.084;2022-10-16T04:56:40;99627.00;;;21.63;64.27
51043;BME280;37078;45.806;9.084;2022-10-16T04:59:13;99630.25;;;21.65;64.40
51043;BME280;37078;45.806;9.084;2022-10-16T05:01:39;99633.78;;;21.65;64.31
51043;BME280;37078;45.806;9.084;2022-10-16T05:04:04;99626.72;;;21.64;64.30
51043;BME280;37078;45.806;9.084;2022-10-16T05:06:29;99624.03;;;21.64;64.41
51043;BME280;37078;45.806;9.084;2022-10-16T05:08:55;99627.53;;;21.65;64.56
51043;BME280;37078;45.806;9.084;2022-10-16T05:11:20;99632.41;;;21.63;64.52
51043;BME280;37078;45.806;9.084;2022-10-16T05:13:45;99631.88;;;21.66;64.60
51043;BME280;37078;45.806;9.084;2022-10-16T05:16:11;99633.25;;;21.63;64.32
51043;BME280;37078;45.806;9.084;2022-10-16T05:18:36;99627.84;;;21.63;64.31
51043;BME280;37078;45.806;9.084;2022-10-16T05:21:02;99638.41;;;21.65;64.14
51043;BME280;37078;45.806;9.084;2022-10-16T05:23:27;99636.78;;;21.64;64.26
51043;BME280;37078;45.806;9.084;2022-10-16T05:25:57;99639.50;;;21.64;64.38
51043;BME280;37078;45.806;9.084;2022-10-16T05:28:25;99630.81;;;21.62;64.23
51043;BME280;37078;45.806;9.084;2022-10-16T05:30:51;99636.78;;;21.64;64.27
51043;BME280;37078;45.806;9.084;2022-10-16T05:33:16;99635.97;;;21.63;64.27
51043;BME280;37078;45.806;9.084;2022-10-16T05:35:42;99641.16;;;21.60;64.42
51043;BME280;37078;45.806;9.084;2022-10-16T05:38:09;99639.75;;;21.62;64.29
51043;BME280;37078;45.806;9.084;2022-10-16T05:40:34;99643.28;;;21.63;64.25
51043;BME280;37078;45.806;9.084;2022-10-16T05:43:00;99644.38;;;21.62;64.19
51043;BME280;37078;45.806;9.084;2022-10-16T05:45:25;99645.19;;;21.62;64.27
51043;BME280;37078;45.806;9.084;2022-10-16T05:47:51;99645.47;;;21.61;64.58
51043;BME280;37078;45.806;9.084;2022-10-16T05:50:16;99654.41;;;21.61;64.21
51043;BME280;37078;45.806;9.084;2022-10-16T05:52:41;99654.13;;;21.63;64.32
51043;BME280;37078;45.806;9.084;2022-10-16T05:55:07;99663.38;;;21.62;64.48
51043;BME280;37078;45.806;9.084;2022-10-16T05:57:32;99664.47;;;21.61;64.41
51043;BME280;37078;45.806;9.084;2022-10-16T05:59:58;99661.75;;;21.61;64.37
51043;BME280;37078;45.806;9.084;2022-10-16T06:02:23;99667.19;;;21.61;64.33
51043;BME280;37078;45.806;9.084;2022-10-16T06:04:48;99668.03;;;21.56;64.57
51043;BME280;37078;45.806;9.084;2022-10-16T06:07:14;99680.81;;;21.51;63.03
51043;BME280;37078;45.806;9.084;2022-10-16T06:09:39;99682.00;;;21.00;60.17
51043;BME280;37078;45.806;9.084;2022-10-16T06:12:05;99684.03;;;20.74;60.81
51043;BME280;37078;45.806;9.084;2022-10-16T06:14:30;99689.97;;;20.76;62.42
51043;BME280;37078;45.806;9.084;2022-10-16T06:16:55;99692.56;;;20.96;62.00
51043;BME280;37078;45.806;9.084;2022-10-16T06:19:21;99698.16;;;21.15;62.00
51043;BME280;37078;45.806;9.084;2022-10-16T06:21:48;99704.34;;;21.21;61.69
51043;BME280;37078;45.806;9.084;2022-10-16T06:24:13;99705.66;;;21.29;61.39
51043;BME280;37078;45.806;9.084;2022-10-16T06:26:38;99704.31;;;21.31;61.46
51043;BME280;37078;45.806;9.084;2022-10-16T06:29:04;99702.41;;;21.32;61.49
51043;BME280;37078;45.806;9.084;2022-10-16T06:31:29;99711.88;;;21.34;61.46
51043;BME280;37078;45.806;9.084;2022-10-16T06:33:57;99713.78;;;21.34;61.53
51043;BME280;37078;45.806;9.084;2022-10-16T06:36:23;99726.78;;;21.37;61.54
51043;BME280;37078;45.806;9.084;2022-10-16T06:38:49;99728.66;;;21.36;61.56
51043;BME280;37078;45.806;9.084;2022-10-16T06:41:17;99720.81;;;21.35;61.63
51043;BME280;37078;45.806;9.084;2022-10-16T06:43:43;99725.69;;;21.38;61.76
51043;BME280;37078;45.806;9.084;2022-10-16T06:46:10;99724.88;;;21.37;61.74
51043;BME280;37078;45.806;9.084;2022-10-16T06:48:36;99731.34;;;21.41;61.52
51043;BME280;37078;45.806;9.084;2022-10-16T06:51:08;99728.38;;;21.43;61.96
51043;BME280;37078;45.806;9.084;2022-10-16T06:53:35;99738.13;;;21.44;62.20
51043;BME280;37078;45.806;9.084;2022-10-16T06:56:13;99731.34;;;21.41;62.13
51043;BME280;37078;45.806;9.084;2022-10-16T06:58:40;99744.09;;;21.41;62.31
51043;BME280;37078;45.806;9.084;2022-10-16T07:01:05;99751.41;;;21.40;62.20
51043;BME280;37078;45.806;9.084;2022-10-16T07:03:31;99750.91;;;21.38;62.22
51043;BME280;37078;45.806;9.084;2022-10-16T07:06:01;99752.00;;;21.37;62.45
51043;BME280;37078;45.806;9.084;2022-10-16T07:08:27;99755.53;;;21.38;61.95
51043;BME280;37078;45.806;9.084;2022-10-16T07:11:01;99757.44;;;21.37;62.12
51043;BME280;37078;45.806;9.084;2022-10-16T07:13:27;99769.06;;;21.38;62.51
51043;BME280;37078;45.806;9.084;2022-10-16T07:15:52;99770.69;;;21.39;62.38
51043;BME280;37078;45.806;9.084;2022-10-16T07:18:18;99776.94;;;21.39;62.37
51043;BME280;37078;45.806;9.084;2022-10-16T07:20:43;99772.84;;;21.42;62.66
51043;BME280;37078;45.806;9.084;2022-10-16T07:23:09;99779.09;;;21.42;62.80
51043;BME280;37078;45.806;9.084;2022-10-16T07:25:34;99779.59;;;21.44;62.69
51043;BME280;37078;45.806;9.084;2022-10-16T07:27:59;99789.34;;;21.45;63.00
51043;BME280;37078;45.806;9.084;2022-10-16T07:30:25;99786.66;;;21.45;62.65
51043;BME280;37078;45.806;9.084;2022-10-16T07:32:50;99795.03;;;21.49;62.94
51043;BME280;37078;45.806;9.084;2022-10-16T07:35:15;99789.63;;;21.49;62.65
51043;BME280;37078;45.806;9.084;2022-10-16T07:37:44;99797.47;;;21.51;62.64
51043;BME280;37078;45.806;9.084;2022-10-16T07:40:10;99802.06;;;21.55;62.66
51043;BME280;37078;45.806;9.084;2022-10-16T07:42:36;99801.53;;;21.53;62.52
51043;BME280;37078;45.806;9.084;2022-10-16T07:45:01;99806.66;;;21.55;62.36
51043;BME280;37078;45.806;9.084;2022-10-16T07:47:26;99805.84;;;21.54;62.20
51043;BME280;37078;45.806;9.084;2022-10-16T07:49:52;99807.97;;;21.62;62.45
51043;BME280;37078;45.806;9.084;2022-10-16T07:52:17;99804.69;;;21.65;62.70
51043;BME280;37078;45.806;9.084;2022-10-16T07:54:42;99808.47;;;21.69;63.19
51043;BME280;37078;45.806;9.084;2022-10-16T07:57:08;99812.81;;;21.70;62.74
51043;BME280;37078;45.806;9.084;2022-10-16T07:59:33;99813.31;;;21.72;62.85
51043;BME280;37078;45.806;9.084;2022-10-16T08:01:58;99820.91;;;21.75;62.93
51043;BME280;37078;45.806;9.084;2022-10-16T08:04:24;99817.09;;;21.77;62.84
51043;BME280;37078;45.806;9.084;2022-10-16T08:06:49;99821.13;;;21.79;62.68
51043;BME280;37078;45.806;9.084;2022-10-16T08:09:15;99819.81;;;21.77;62.53
51043;BME280;37078;45.806;9.084;2022-10-16T08:11:40;99818.19;;;21.75;62.53
51043;BME280;37078;45.806;9.084;2022-10-16T08:14:05;99817.38;;;21.75;62.42
51043;BME280;37078;45.806;9.084;2022-10-16T08:16:31;99821.19;;;21.74;62.56
51043;BME280;37078;45.806;9.084;2022-10-16T08:18:56;99823.63;;;21.75;62.45
51043;BME280;37078;45.806;9.084;2022-10-16T08:21:22;99824.44;;;21.76;62.56
51043;BME280;37078;45.806;9.084;2022-10-16T08:23:49;99827.13;;;21.76;62.49
51043;BME280;37078;45.806;9.084;2022-10-16T08:26:14;99821.72;;;21.76;62.47
51043;BME280;37078;45.806;9.084;2022-10-16T08:28:40;99826.63;;;21.74;62.42
51043;BME280;37078;45.806;9.084;2022-10-16T08:31:11;99825.22;;;21.77;62.13
51043;BME280;37078;45.806;9.084;2022-10-16T08:33:38;99823.06;;;21.73;62.19
51043;BME280;37078;45.806;9.084;2022-10-16T08:36:05;99822.53;;;21.77;62.29
51043;BME280;37078;45.806;9.084;2022-10-16T08:38:31;99827.66;;;21.78;62.20
51043;BME280;37078;45.806;9.084;2022-10-16T08:41:21;99827.13;;;21.76;62.22
51043;BME280;37078;45.806;9.084;2022-10-16T08:48:59;99827.94;;;21.77;62.05
51043;BME280;37078;45.806;9.084;2022-10-16T08:51:29;99817.38;;;21.75;62.18
51043;BME280;37078;45.806;9.084;2022-10-16T08:53:57;99813.88;;;21.74;62.22
51043;BME280;37078;45.806;9.084;2022-10-16T08:56:25;99823.91;;;21.74;61.98
51043;BME280;37078;45.806;9.084;2022-10-16T08:58:51;99824.72;;;21.74;62.13
51043;BME280;37078;45.806;9.084;2022-10-16T09:01:19;99826.63;;;21.74;62.16
51043;BME280;37078;45.806;9.084;2022-10-16T09:14:40;99827.19;;;21.71;62.14
51043;BME280;37078;45.806;9.084;2022-10-16T09:19:56;99832.88;;;21.69;62.16
51043;BME280;37078;45.806;9.084;2022-10-16T09:22:27;99839.94;;;21.70;62.02
51043;BME280;37078;45.806;9.084;2022-10-16T09:24:55;99844.81;;;21.68;62.01
51043;BME280;37078;45.806;9.084;2022-10-16T09:27:24;99845.09;;;21.67;62.19
51043;BME280;37078;45.806;9.084;2022-10-16T09:29:49;99847.00;;;21.66;62.26
51043;BME280;37078;45.806;9.084;2022-10-16T09:32:20;99849.72;;;21.66;62.10
51043;BME280;37078;45.806;9.084;2022-10-16T09:34:50;99851.91;;;21.64;62.08
51043;BME280;37078;45.806;9.084;2022-10-16T09:37:21;99844.88;;;21.63;62.06
51043;BME280;37078;45.806;9.084;2022-10-16T09:39:52;99853.00;;;21.63;61.97
51043;BME280;37078;45.806;9.084;2022-10-16T09:42:21;99856.53;;;21.64;62.09
51043;BME280;37078;45.806;9.084;2022-10-16T09:44:48;99850.31;;;21.63;62.31
51043;BME280;37078;45.806;9.084;2022-10-16T09:47:20;99854.88;;;21.63;62.24
51043;BME280;37078;45.806;9.084;2022-10-16T09:49:58;99856.00;;;21.62;62.19
51043;BME280;37078;45.806;9.084;2022-10-16T09:52:30;99853.56;;;21.60;61.94
51043;BME280;37078;45.806;9.084;2022-10-16T09:55:12;99857.09;;;21.61;62.10
51043;BME280;37078;45.806;9.084;2022-10-16T09:57:51;99846.22;;;21.61;62.14
51043;BME280;37078;45.806;9.084;2022-10-16T10:00:18;99848.94;;;21.61;62.11
51043;BME280;37078;45.806;9.084;2022-10-16T10:02:44;99842.72;;;21.60;62.10
51043;BME280;37078;45.806;9.084;2022-10-16T10:05:24;99844.63;;;21.60;62.15
51043;BME280;37078;45.806;9.084;2022-10-16T10:08:01;99846.22;;;21.61;61.98
51043;BME280;37078;45.806;9.084;2022-10-16T10:10:33;99850.03;;;21.60;61.97
51043;BME280;37078;45.806;9.084;2022-10-16T10:13:00;99851.94;;;21.59;62.09
51043;BME280;37078;45.806;9.084;2022-10-16T10:15:28;99849.50;;;21.58;62.25
51043;BME280;37078;45.806;9.084;2022-10-16T10:17:58;99853.03;;;21.58;62.36
51043;BME280;37078;45.806;9.084;2022-10-16T10:20:29;99842.19;;;21.58;62.36
51043;BME280;37078;45.806;9.084;2022-10-16T10:22:56;99842.75;;;21.55;62.18
51043;BME280;37078;45.806;9.084;2022-10-16T10:25:26;99841.34;;;21.58;61.99
51043;BME280;37078;45.806;9.084;2022-10-16T10:30:53;99841.34;;;21.58;62.01
51043;BME280;37078;45.806;9.084;2022-10-16T10:33:44;99842.19;;;21.58;61.80
51043;BME280;37078;45.806;9.084;2022-10-16T10:39:00;99842.44;;;21.57;62.13
51043;BME280;37078;45.806;9.084;2022-10-16T11:01:09;99832.19;;;21.54;62.04
51043;BME280;37078;45.806;9.084;2022-10-16T11:09:22;99824.31;;;21.52;62.01
51043;BME280;37078;45.806;9.084;2022-10-16T11:12:00;99824.06;;;21.48;62.12
51043;BME280;37078;45.806;9.084;2022-10-16T11:14:30;99824.31;;;21.52;62.02
51043;BME280;37078;45.806;9.084;2022-10-16T11:17:04;99826.19;;;21.52;62.13
51043;BME280;37078;45.806;9.084;2022-10-16T11:22:37;99816.44;;;21.51;62.05
51043;BME280;37078;45.806;9.084;2022-10-16T11:25:33;99820.53;;;21.53;61.91
51043;BME280;37078;45.806;9.084;2022-10-16T11:28:11;99817.81;;;21.53;62.04
51043;BME280;37078;45.806;9.084;2022-10-16T11:30:51;99817.81;;;21.53;61.93
51043;BME280;37078;45.806;9.084;2022-10-16T11:35:58;99815.09;;;21.53;61.80
51043;BME280;37078;45.806;9.084;2022-10-16T11:38:43;99803.97;;;21.49;62.02
51043;BME280;37078;45.806;9.084;2022-10-16T11:46:33;99807.47;;;21.55;61.75
51043;BME280;37078;45.806;9.084;2022-10-16T11:49:15;99811.50;;;21.58;61.72
51043;BME280;37078;45.806;9.084;2022-10-16T11:54:44;99808.53;;;21.59;61.64
51043;BME280;37078;45.806;9.084;2022-10-16T11:57:24;99805.25;;;21.62;61.37
51043;BME280;37078;45.806;9.084;2022-10-16T12:00:02;99797.91;;;21.63;61.38
51043;BME280;37078;45.806;9.084;2022-10-16T12:02:37;99801.97;;;21.65;61.42
51043;BME280;37078;45.806;9.084;2022-10-16T12:10:37;99797.03;;;21.72;61.10
51043;BME280;37078;45.806;9.084;2022-10-16T12:13:36;99797.81;;;21.78;61.27
51043;BME280;37078;45.806;9.084;2022-10-16T12:18:33;99798.19;;;21.95;60.66
51043;BME280;37078;45.806;9.084;2022-10-16T12:20:59;99803.03;;;22.04;60.27
51043;BME280;37078;45.806;9.084;2022-10-16T12:23:31;99795.94;;;22.08;60.26
51043;BME280;37078;45.806;9.084;2022-10-16T12:25:58;99798.91;;;22.11;59.79
51043;BME280;37078;45.806;9.084;2022-10-16T12:28:29;99788.25;;;22.20;59.71
51043;BME280;37078;45.806;9.084;2022-10-16T12:30:58;99784.44;;;22.21;59.62
51043;BME280;37078;45.806;9.084;2022-10-16T12:33:27;99786.06;;;22.22;59.51
51043;BME280;37078;45.806;9.084;2022-10-16T12:35:53;99784.97;;;22.23;59.72
51043;BME280;37078;45.806;9.084;2022-10-16T12:38:46;99788.72;;;22.27;59.75
51043;BME280;37078;45.806;9.084;2022-10-16T12:41:12;99777.84;;;22.27;59.58
51043;BME280;37078;45.806;9.084;2022-10-16T12:43:49;99787.88;;;22.32;59.28
51043;BME280;37078;45.806;9.084;2022-10-16T12:48:42;99785.63;;;22.39;59.12
51043;BME280;37078;45.806;9.084;2022-10-16T12:51:51;99785.03;;;22.42;59.24
51043;BME280;37078;45.806;9.084;2022-10-16T12:54:09;99784.19;;;22.46;58.91
51043;BME280;37078;45.806;9.084;2022-10-16T13:08:03;99787.31;;;22.59;58.63
51043;BME280;37078;45.806;9.084;2022-10-16T13:16:30;99786.91;;;22.70;58.63
51043;BME280;37078;45.806;9.084;2022-10-16T13:30:02;99786.50;;;22.82;58.09
51043;BME280;37078;45.806;9.084;2022-10-16T13:32:28;99780.78;;;22.84;58.08
51043;BME280;37078;45.806;9.084;2022-10-16T13:34:54;99780.22;;;22.82;58.16
51043;BME280;37078;45.806;9.084;2022-10-16T13:37:22;99785.97;;;22.80;58.05
51043;BME280;37078;45.806;9.084;2022-10-16T13:39:48;99782.16;;;22.81;58.14
51043;BME280;37078;45.806;9.084;2022-10-16T13:42:27;99786.28;;;22.78;58.80
51043;BME280;37078;45.806;9.084;2022-10-16T13:44:54;99781.19;;;22.72;58.94
51043;BME280;37078;45.806;9.084;2022-10-16T13:47:24;99788.25;;;22.73;58.98
51043;BME280;37078;45.806;9.084;2022-10-16T13:50:19;99785.22;;;22.74;58.89
51043;BME280;37078;45.806;9.084;2022-10-16T13:52:45;99792.06;;;22.72;58.84
51043;BME280;37078;45.806;9.084;2022-10-16T13:55:17;99784.56;;;22.88;58.53
51043;BME280;37078;45.806;9.084;2022-10-16T13:57:44;99790.63;;;23.03;58.29
51043;BME280;37078;45.806;9.084;2022-10-16T14:00:20;99790.63;;;23.03;58.16
51043;BME280;37078;45.806;9.084;2022-10-16T14:02:51;99792.25;;;23.23;57.75
51043;BME280;37078;45.806;9.084;2022-10-16T14:05:18;99789.06;;;23.35;57.02
51043;BME280;37078;45.806;9.084;2022-10-16T14:07:49;99795.78;;;23.43;57.00
51043;BME280;37078;45.806;9.084;2022-10-16T14:10:31;99793.19;;;23.51;56.97
51043;BME280;37078;45.806;9.084;2022-10-16T14:13:02;99793.78;;;23.48;56.76
51043;BME280;37078;45.806;9.084;2022-10-16T14:15:30;99795.78;;;23.43;56.90
51043;BME280;37078;45.806;9.084;2022-10-16T14:17:57;99798.66;;;23.33;57.04
51043;BME280;37078;45.806;9.084;2022-10-16T14:20:29;99798.19;;;23.44;56.79
51043;BME280;37078;45.806;9.084;2022-10-16T14:23:02;99797.56;;;23.52;56.66
51043;BME280;37078;45.806;9.084;2022-10-16T14:25:30;99798.06;;;23.54;56.60
51043;BME280;37078;45.806;9.084;2022-10-16T14:30:26;99799.84;;;23.64;56.26
51043;BME280;37078;45.806;9.084;2022-10-16T14:35:28;99804.00;;;23.56;56.57
51043;BME280;37078;45.806;9.084;2022-10-16T14:37:54;99810.56;;;23.55;56.69
51043;BME280;37078;45.806;9.084;2022-10-16T14:40:24;99806.53;;;23.53;56.65
51043;BME280;37078;45.806;9.084;2022-10-16T14:42:50;99813.81;;;23.57;56.33
51043;BME280;37078;45.806;9.084;2022-10-16T14:45:22;99807.72;;;23.66;56.31
51043;BME280;37078;45.806;9.084;2022-10-16T14:47:51;99807.72;;;23.66;56.35
51043;BME280;37078;45.806;9.084;2022-10-16T14:50:17;99811.16;;;23.52;56.55
51043;BME280;37078;45.806;9.084;2022-10-16T14:52:43;99815.47;;;23.35;56.81
51043;BME280;37078;45.806;9.084;2022-10-16T14:55:09;99801.44;;;23.27;57.03
51043;BME280;37078;45.806;9.084;2022-10-16T14:57:37;99813.34;;;23.31;56.87
51043;BME280;37078;45.806;9.084;2022-10-16T15:00:09;99814.38;;;23.17;57.24
51043;BME280;37078;45.806;9.084;2022-10-16T15:02:38;99809.91;;;23.02;57.51
51043;BME280;37078;45.806;9.084;2022-10-16T15:05:21;99815.22;;;22.93;57.93
51043;BME280;37078;45.806;9.084;2022-10-16T15:07:50;99809.84;;;22.88;57.96
51043;BME280;37078;45.806;9.084;2022-10-16T15:10:17;99817.22;;;22.83;58.22
51043;BME280;37078;45.806;9.084;2022-10-16T15:12:43;99817.28;;;22.77;58.23